sensor_id;sensor_type;location;lat;lon;timestamp;P1;durP1;ratioP1;P2;durP2;ratioP2
48317;SDS011;34127;47.412;9.730;2022-08-30T00:01:10;6.55;;;4.68;;
48317;SDS011;34127;47.412;9.730;2022-08-30T00:03:40;6.35;;;5.18;;
48317;SDS011;34127;47.412;9.730;2022-08-30T00:06:09;5.82;;;4.53;;
48317;SDS011;34127;47.412;9.730;2022-08-30T00:08:35;6.50;;;5.00;;
48317;SDS011;34127;47.412;9.730;2022-08-30T00:11:02;6.38;;;5.00;;
48317;SDS011;34127;47.412;9.730;2022-08-30T00:13:29;7.68;;;5.22;;
48317;SDS011;34127;47.412;9.730;2022-08-30T00:15:56;7.20;;;4.95;;
48317;SDS011;34127;47.412;9.730;2022-08-30T00:18:22;8.45;;;5.00;;
48317;SDS011;34127;47.412;9.730;2022-08-30T00:20:49;7.82;;;5.80;;
48317;SDS011;34127;47.412;9.730;2022-08-30T00:23:15;6.38;;;5.20;;
48317;SDS011;34127;47.412;9.730;2022-08-30T00:25:42;7.55;;;5.35;;
48317;SDS011;34127;47.412;9.730;2022-08-30T00:28:08;8.35;;;5.40;;
48317;SDS011;34127;47.412;9.730;2022-08-30T00:30:36;7.28;;;5.45;;
48317;SDS011;34127;47.412;9.730;2022-08-30T00:33:02;8.15;;;5.32;;
48317;SDS011;34127;47.412;9.730;2022-08-30T00:35:28;6.97;;;5.45;;
48317;SDS011;34127;47.412;9.730;2022-08-30T00:37:55;8.40;;;5.57;;
48317;SDS011;34127;47.412;9.730;2022-08-30T00:40:22;6.78;;;5.10;;
48317;SDS011;34127;47.412;9.730;2022-08-30T00:42:48;7.55;;;5.20;;
48317;SDS011;34127;47.412;9.730;2022-08-30T00:45:19;6.93;;;5.05;;
48317;SDS011;34127;47.412;9.730;2022-08-30T00:47:45;6.68;;;4.95;;
48317;SDS011;34127;47.412;9.730;2022-08-30T00:50:13;9.00;;;4.93;;
48317;SDS011;34127;47.412;9.730;2022-08-30T00:52:40;7.68;;;4.97;;
48317;SDS011;34127;47.412;9.730;2022-08-30T00:55:07;7.70;;;5.07;;
48317;SDS011;34127;47.412;9.730;2022-08-30T00:57:34;7.18;;;5.05;;
48317;SDS011;34127;47.412;9.730;2022-08-30T01:00:00;9.25;;;5.13;;
48317;SDS011;34127;47.412;9.730;2022-08-30T01:02:27;6.22;;;4.93;;
48317;SDS011;34127;47.412;9.730;2022-08-30T01:04:55;7.25;;;5.00;;
48317;SDS011;34127;47.412;9.730;2022-08-30T01:07:22;7.20;;;5.07;;
48317;SDS011;34127;47.412;9.730;2022-08-30T01:09:49;10.05;;;5.18;;
48317;SDS011;34127;47.412;9.730;2022-08-30T01:12:15;6.68;;;4.97;;
48317;SDS011;34127;47.412;9.730;2022-08-30T01:14:41;6.10;;;4.90;;
48317;SDS011;34127;47.412;9.730;2022-08-30T01:17:07;7.63;;;5.20;;
48317;SDS011;34127;47.412;9.730;2022-08-30T01:19:37;7.60;;;5.50;;
48317;SDS011;34127;47.412;9.730;2022-08-30T01:22:07;7.40;;;5.43;;
48317;SDS011;34127;47.412;9.730;2022-08-30T01:24:35;8.95;;;6.18;;
48317;SDS011;34127;47.412;9.730;2022-08-30T01:27:02;8.40;;;6.60;;
48317;SDS011;34127;47.412;9.730;2022-08-30T01:29:28;8.50;;;6.63;;
48317;SDS011;34127;47.412;9.730;2022-08-30T01:31:54;10.60;;;7.53;;
48317;SDS011;34127;47.412;9.730;2022-08-30T01:34:20;9.65;;;6.70;;
48317;SDS011;34127;47.412;9.730;2022-08-30T01:36:47;7.63;;;5.25;;
48317;SDS011;34127;47.412;9.730;2022-08-30T01:39:15;7.97;;;5.97;;
48317;SDS011;34127;47.412;9.730;2022-08-30T01:41:42;7.82;;;5.53;;
48317;SDS011;34127;47.412;9.730;2022-08-30T01:44:10;7.45;;;5.10;;
48317;SDS011;34127;47.412;9.730;2022-08-30T01:46:38;8.55;;;5.95;;
48317;SDS011;34127;47.412;9.730;2022-08-30T01:49:06;9.32;;;5.57;;
48317;SDS011;34127;47.412;9.730;2022-08-30T01:51:33;8.35;;;5.70;;
48317;SDS011;34127;47.412;9.730;2022-08-30T01:53:59;7.93;;;5.50;;
48317;SDS011;34127;47.412;9.730;2022-08-30T01:56:26;6.72;;;5.28;;
48317;SDS011;34127;47.412;9.730;2022-08-30T01:58:53;7.20;;;5.18;;
48317;SDS011;34127;47.412;9.730;2022-08-30T02:01:21;5.97;;;4.90;;
48317;SDS011;34127;47.412;9.730;2022-08-30T02:03:47;7.40;;;5.20;;
48317;SDS011;34127;47.412;9.730;2022-08-30T02:06:14;8.95;;;6.25;;
48317;SDS011;34127;47.412;9.730;2022-08-30T02:08:41;8.88;;;5.95;;
48317;SDS011;34127;47.412;9.730;2022-08-30T02:11:07;7.32;;;5.50;;
48317;SDS011;34127;47.412;9.730;2022-08-30T02:13:34;8.73;;;5.53;;
48317;SDS011;34127;47.412;9.730;2022-08-30T02:16:04;6.53;;;5.40;;
48317;SDS011;34127;47.412;9.730;2022-08-30T02:18:31;7.38;;;5.43;;
48317;SDS011;34127;47.412;9.730;2022-08-30T02:20:58;7.55;;;5.57;;
48317;SDS011;34127;47.412;9.730;2022-08-30T02:23:25;7.57;;;5.90;;
48317;SDS011;34127;47.412;9.730;2022-08-30T02:25:51;7.03;;;6.00;;
48317;SDS011;34127;47.412;9.730;2022-08-30T02:28:17;9.18;;;6.25;;
48317;SDS011;34127;47.412;9.730;2022-08-30T02:30:44;7.88;;;5.78;;
48317;SDS011;34127;47.412;9.730;2022-08-30T02:33:10;8.35;;;5.90;;
48317;SDS011;34127;47.412;9.730;2022-08-30T02:35:36;9.13;;;5.90;;
48317;SDS011;34127;47.412;9.730;2022-08-30T02:38:02;8.85;;;6.57;;
48317;SDS011;34127;47.412;9.730;2022-08-30T02:40:29;8.30;;;6.13;;
48317;SDS011;34127;47.412;9.730;2022-08-30T02:42:55;10.15;;;6.28;;
48317;SDS011;34127;47.412;9.730;2022-08-30T02:45:22;7.40;;;5.82;;
48317;SDS011;34127;47.412;9.730;2022-08-30T02:47:48;9.60;;;6.15;;
48317;SDS011;34127;47.412;9.730;2022-08-30T02:50:14;11.88;;;5.93;;
48317;SDS011;34127;47.412;9.730;2022-08-30T02:52:40;8.65;;;6.00;;
48317;SDS011;34127;47.412;9.730;2022-08-30T02:55:07;9.80;;;6.60;;
48317;SDS011;34127;47.412;9.730;2022-08-30T02:57:33;8.95;;;5.72;;
48317;SDS011;34127;47.412;9.730;2022-08-30T03:00:00;7.47;;;5.95;;
48317;SDS011;34127;47.412;9.730;2022-08-30T03:02:26;9.32;;;6.53;;
48317;SDS011;34127;47.412;9.730;2022-08-30T03:04:53;8.65;;;6.65;;
48317;SDS011;34127;47.412;9.730;2022-08-30T03:07:19;9.38;;;5.88;;
48317;SDS011;34127;47.412;9.730;2022-08-30T03:09:45;8.75;;;6.75;;
48317;SDS011;34127;47.412;9.730;2022-08-30T03:12:11;11.40;;;7.28;;
48317;SDS011;34127;47.412;9.730;2022-08-30T03:14:38;8.52;;;6.78;;
48317;SDS011;34127;47.412;9.730;2022-08-30T03:17:05;11.82;;;7.20;;
48317;SDS011;34127;47.412;9.730;2022-08-30T03:19:32;10.80;;;7.20;;
48317;SDS011;34127;47.412;9.730;2022-08-30T03:21:58;9.00;;;6.80;;
48317;SDS011;34127;47.412;9.730;2022-08-30T03:24:24;8.65;;;6.85;;
48317;SDS011;34127;47.412;9.730;2022-08-30T03:26:51;9.85;;;7.10;;
48317;SDS011;34127;47.412;9.730;2022-08-30T03:29:17;9.15;;;7.10;;
48317;SDS011;34127;47.412;9.730;2022-08-30T03:31:43;9.07;;;6.38;;
48317;SDS011;34127;47.412;9.730;2022-08-30T03:34:09;11.27;;;7.50;;
48317;SDS011;34127;47.412;9.730;2022-08-30T03:36:36;13.45;;;7.60;;
48317;SDS011;34127;47.412;9.730;2022-08-30T03:39:06;9.50;;;7.50;;
48317;SDS011;34127;47.412;9.730;2022-08-30T03:41:33;9.68;;;7.43;;
48317;SDS011;34127;47.412;9.730;2022-08-30T03:44:00;10.98;;;6.80;;
48317;SDS011;34127;47.412;9.730;2022-08-30T03:46:27;8.63;;;7.03;;
48317;SDS011;34127;47.412;9.730;2022-08-30T03:48:53;11.15;;;6.88;;
48317;SDS011;34127;47.412;9.730;2022-08-30T03:51:20;8.75;;;6.57;;
48317;SDS011;34127;47.412;9.730;2022-08-30T03:53:46;9.85;;;6.65;;
48317;SDS011;34127;47.412;9.730;2022-08-30T03:56:13;8.60;;;6.30;;
48317;SDS011;34127;47.412;9.730;2022-08-30T03:58:39;9.85;;;6.30;;
48317;SDS011;34127;47.412;9.730;2022-08-30T04:01:06;7.90;;;6.22;;
48317;SDS011;34127;47.412;9.730;2022-08-30T04:03:32;8.20;;;5.82;;
48317;SDS011;34127;47.412;9.730;2022-08-30T04:05:58;8.25;;;5.95;;
48317;SDS011;34127;47.412;9.730;2022-08-30T04:08:25;10.18;;;7.43;;
48317;SDS011;34127;47.412;9.730;2022-08-30T04:10:51;9.85;;;6.75;;
48317;SDS011;34127;47.412;9.730;2022-08-30T04:13:18;7.10;;;6.00;;
48317;SDS011;34127;47.412;9.730;2022-08-30T04:15:45;7.95;;;6.47;;
48317;SDS011;34127;47.412;9.730;2022-08-30T04:18:11;8.95;;;6.93;;
48317;SDS011;34127;47.412;9.730;2022-08-30T04:20:37;12.88;;;6.80;;
48317;SDS011;34127;47.412;9.730;2022-08-30T04:23:04;9.02;;;7.07;;
48317;SDS011;34127;47.412;9.730;2022-08-30T04:25:34;7.80;;;5.75;;
48317;SDS011;34127;47.412;9.730;2022-08-30T04:28:00;8.48;;;6.55;;
48317;SDS011;34127;47.412;9.730;2022-08-30T04:30:26;9.32;;;6.55;;
48317;SDS011;34127;47.412;9.730;2022-08-30T04:32:53;11.48;;;7.40;;
48317;SDS011;34127;47.412;9.730;2022-08-30T04:35:19;10.32;;;8.07;;
48317;SDS011;34127;47.412;9.730;2022-08-30T04:37:45;8.90;;;7.07;;
48317;SDS011;34127;47.412;9.730;2022-08-30T04:40:11;10.05;;;8.00;;
48317;SDS011;34127;47.412;9.730;2022-08-30T04:42:38;9.32;;;7.35;;
48317;SDS011;34127;47.412;9.730;2022-08-30T04:45:09;13.60;;;8.45;;
48317;SDS011;34127;47.412;9.730;2022-08-30T04:47:36;12.85;;;8.90;;
48317;SDS011;34127;47.412;9.730;2022-08-30T04:50:03;16.20;;;10.32;;
48317;SDS011;34127;47.412;9.730;2022-08-30T04:52:30;13.55;;;10.00;;
48317;SDS011;34127;47.412;9.730;2022-08-30T04:54:56;14.95;;;9.90;;
48317;SDS011;34127;47.412;9.730;2022-08-30T04:57:23;12.52;;;9.18;;
48317;SDS011;34127;47.412;9.730;2022-08-30T04:59:50;16.02;;;9.75;;
48317;SDS011;34127;47.412;9.730;2022-08-30T05:02:16;16.38;;;12.30;;
48317;SDS011;34127;47.412;9.730;2022-08-30T05:04:43;17.92;;;12.23;;
48317;SDS011;34127;47.412;9.730;2022-08-30T05:07:28;16.38;;;11.60;;
48317;SDS011;34127;47.412;9.730;2022-08-30T05:09:54;16.98;;;11.05;;
48317;SDS011;34127;47.412;9.730;2022-08-30T05:12:21;15.15;;;11.27;;
48317;SDS011;34127;47.412;9.730;2022-08-30T05:14:47;19.90;;;10.98;;
48317;SDS011;34127;47.412;9.730;2022-08-30T05:17:14;18.05;;;11.75;;
48317;SDS011;34127;47.412;9.730;2022-08-30T05:19:40;14.23;;;11.43;;
48317;SDS011;34127;47.412;9.730;2022-08-30T05:22:06;22.85;;;11.05;;
48317;SDS011;34127;47.412;9.730;2022-08-30T05:24:33;16.00;;;10.45;;
48317;SDS011;34127;47.412;9.730;2022-08-30T05:26:59;13.40;;;10.10;;
48317;SDS011;34127;47.412;9.730;2022-08-30T05:29:25;12.95;;;9.27;;
48317;SDS011;34127;47.412;9.730;2022-08-30T05:31:51;14.60;;;8.52;;
48317;SDS011;34127;47.412;9.730;2022-08-30T05:34:17;9.93;;;7.03;;
48317;SDS011;34127;47.412;9.730;2022-08-30T05:36:44;10.85;;;6.85;;
48317;SDS011;34127;47.412;9.730;2022-08-30T05:39:11;10.27;;;6.20;;
48317;SDS011;34127;47.412;9.730;2022-08-30T05:41:37;10.38;;;6.97;;
48317;SDS011;34127;47.412;9.730;2022-08-30T05:44:04;7.32;;;5.63;;
48317;SDS011;34127;47.412;9.730;2022-08-30T05:46:31;14.48;;;7.72;;
48317;SDS011;34127;47.412;9.730;2022-08-30T05:48:59;9.35;;;5.55;;
48317;SDS011;34127;47.412;9.730;2022-08-30T05:51:29;9.43;;;6.60;;
48317;SDS011;34127;47.412;9.730;2022-08-30T05:53:56;12.15;;;7.55;;
48317;SDS011;34127;47.412;9.730;2022-08-30T05:56:32;13.30;;;7.75;;
48317;SDS011;34127;47.412;9.730;2022-08-30T05:58:59;12.02;;;7.38;;
48317;SDS011;34127;47.412;9.730;2022-08-30T06:01:33;9.90;;;7.05;;
48317;SDS011;34127;47.412;9.730;2022-08-30T06:03:59;16.17;;;6.80;;
48317;SDS011;34127;47.412;9.730;2022-08-30T06:06:27;11.82;;;6.60;;
48317;SDS011;34127;47.412;9.730;2022-08-30T06:08:53;11.60;;;6.53;;
48317;SDS011;34127;47.412;9.730;2022-08-30T06:11:20;10.20;;;7.05;;
48317;SDS011;34127;47.412;9.730;2022-08-30T06:13:47;9.93;;;6.63;;
48317;SDS011;34127;47.412;9.730;2022-08-30T06:16:14;9.63;;;7.20;;
48317;SDS011;34127;47.412;9.730;2022-08-30T06:18:40;8.50;;;6.43;;
48317;SDS011;34127;47.412;9.730;2022-08-30T06:21:07;9.80;;;6.80;;
48317;SDS011;34127;47.412;9.730;2022-08-30T06:23:33;9.57;;;7.10;;
48317;SDS011;34127;47.412;9.730;2022-08-30T06:26:06;18.85;;;6.38;;
48317;SDS011;34127;47.412;9.730;2022-08-30T06:28:32;10.50;;;7.18;;
48317;SDS011;34127;47.412;9.730;2022-08-30T06:30:59;12.23;;;5.97;;
48317;SDS011;34127;47.412;9.730;2022-08-30T06:33:25;8.73;;;5.57;;
48317;SDS011;34127;47.412;9.730;2022-08-30T06:35:51;7.82;;;5.68;;
48317;SDS011;34127;47.412;9.730;2022-08-30T06:38:17;8.02;;;5.07;;
48317;SDS011;34127;47.412;9.730;2022-08-30T06:40:43;10.20;;;6.90;;
48317;SDS011;34127;47.412;9.730;2022-08-30T06:43:09;7.38;;;5.15;;
48317;SDS011;34127;47.412;9.730;2022-08-30T06:45:36;7.90;;;5.40;;
48317;SDS011;34127;47.412;9.730;2022-08-30T06:48:02;9.68;;;5.10;;
48317;SDS011;34127;47.412;9.730;2022-08-30T06:50:28;9.68;;;5.28;;
48317;SDS011;34127;47.412;9.730;2022-08-30T06:52:55;7.03;;;5.10;;
48317;SDS011;34127;47.412;9.730;2022-08-30T06:55:28;9.48;;;5.60;;
48317;SDS011;34127;47.412;9.730;2022-08-30T06:57:57;10.57;;;5.78;;
48317;SDS011;34127;47.412;9.730;2022-08-30T07:00:23;8.65;;;5.68;;
48317;SDS011;34127;47.412;9.730;2022-08-30T07:02:49;10.18;;;5.60;;
48317;SDS011;34127;47.412;9.730;2022-08-30T07:05:15;6.78;;;5.03;;
48317;SDS011;34127;47.412;9.730;2022-08-30T07:07:42;6.93;;;4.85;;
48317;SDS011;34127;47.412;9.730;2022-08-30T07:10:08;6.30;;;4.80;;
48317;SDS011;34127;47.412;9.730;2022-08-30T07:12:35;5.60;;;4.55;;
48317;SDS011;34127;47.412;9.730;2022-08-30T07:15:02;7.10;;;4.60;;
48317;SDS011;34127;47.412;9.730;2022-08-30T07:17:29;6.05;;;5.05;;
48317;SDS011;34127;47.412;9.730;2022-08-30T07:20:14;9.35;;;5.63;;
48317;SDS011;34127;47.412;9.730;2022-08-30T07:22:40;6.47;;;4.80;;
48317;SDS011;34127;47.412;9.730;2022-08-30T07:25:06;5.85;;;4.43;;
48317;SDS011;34127;47.412;9.730;2022-08-30T07:27:32;5.40;;;4.20;;
48317;SDS011;34127;47.412;9.730;2022-08-30T07:29:58;7.15;;;4.90;;
48317;SDS011;34127;47.412;9.730;2022-08-30T07:32:26;6.97;;;4.70;;
48317;SDS011;34127;47.412;9.730;2022-08-30T07:34:53;6.03;;;3.92;;
48317;SDS011;34127;47.412;9.730;2022-08-30T07:37:19;7.25;;;5.10;;
48317;SDS011;34127;47.412;9.730;2022-08-30T07:39:45;6.93;;;4.47;;
48317;SDS011;34127;47.412;9.730;2022-08-30T07:42:11;6.60;;;5.05;;
48317;SDS011;34127;47.412;9.730;2022-08-30T07:44:37;5.95;;;4.80;;
48317;SDS011;34127;47.412;9.730;2022-08-30T07:47:03;7.93;;;5.18;;
48317;SDS011;34127;47.412;9.730;2022-08-30T07:49:29;6.78;;;4.55;;
48317;SDS011;34127;47.412;9.730;2022-08-30T07:51:55;6.63;;;4.50;;
48317;SDS011;34127;47.412;9.730;2022-08-30T07:54:21;6.47;;;4.38;;
48317;SDS011;34127;47.412;9.730;2022-08-30T07:56:48;6.50;;;4.45;;
48317;SDS011;34127;47.412;9.730;2022-08-30T07:59:14;5.50;;;4.43;;
48317;SDS011;34127;47.412;9.730;2022-08-30T08:01:41;7.07;;;4.68;;
48317;SDS011;34127;47.412;9.730;2022-08-30T08:04:07;5.40;;;4.32;;
48317;SDS011;34127;47.412;9.730;2022-08-30T08:06:36;7.65;;;5.20;;
48317;SDS011;34127;47.412;9.730;2022-08-30T08:09:03;6.05;;;5.25;;
48317;SDS011;34127;47.412;9.730;2022-08-30T08:11:29;7.93;;;5.07;;
48317;SDS011;34127;47.412;9.730;2022-08-30T08:13:55;9.32;;;6.82;;
48317;SDS011;34127;47.412;9.730;2022-08-30T08:16:22;6.63;;;4.90;;
48317;SDS011;34127;47.412;9.730;2022-08-30T08:18:48;10.18;;;5.03;;
48317;SDS011;34127;47.412;9.730;2022-08-30T08:21:14;6.35;;;4.97;;
48317;SDS011;34127;47.412;9.730;2022-08-30T08:23:40;7.57;;;5.28;;
48317;SDS011;34127;47.412;9.730;2022-08-30T08:26:07;7.93;;;5.03;;
48317;SDS011;34127;47.412;9.730;2022-08-30T08:28:33;6.03;;;4.50;;
48317;SDS011;34127;47.412;9.730;2022-08-30T08:30:59;5.88;;;4.72;;
48317;SDS011;34127;47.412;9.730;2022-08-30T08:33:25;7.03;;;4.47;;
48317;SDS011;34127;47.412;9.730;2022-08-30T08:35:51;8.43;;;5.25;;
48317;SDS011;34127;47.412;9.730;2022-08-30T08:38:17;8.43;;;5.00;;
48317;SDS011;34127;47.412;9.730;2022-08-30T08:41:04;6.25;;;4.40;;
48317;SDS011;34127;47.412;9.730;2022-08-30T08:43:32;10.15;;;4.95;;
48317;SDS011;34127;47.412;9.730;2022-08-30T08:51:00;7.82;;;4.60;;
48317;SDS011;34127;47.412;9.730;2022-08-30T08:53:49;10.07;;;5.07;;
48317;SDS011;34127;47.412;9.730;2022-08-30T08:56:16;7.93;;;5.00;;
48317;SDS011;34127;47.412;9.730;2022-08-30T08:58:45;5.35;;;4.30;;
48317;SDS011;34127;47.412;9.730;2022-08-30T09:01:12;7.70;;;4.60;;
48317;SDS011;34127;47.412;9.730;2022-08-30T09:03:39;6.50;;;4.55;;
48317;SDS011;34127;47.412;9.730;2022-08-30T09:06:10;7.40;;;4.57;;
48317;SDS011;34127;47.412;9.730;2022-08-30T09:08:40;8.48;;;4.70;;
48317;SDS011;34127;47.412;9.730;2022-08-30T09:11:06;5.47;;;4.20;;
48317;SDS011;34127;47.412;9.730;2022-08-30T09:13:40;6.57;;;4.35;;
48317;SDS011;34127;47.412;9.730;2022-08-30T09:16:06;7.82;;;4.68;;
48317;SDS011;34127;47.412;9.730;2022-08-30T09:18:43;5.18;;;4.05;;
48317;SDS011;34127;47.412;9.730;2022-08-30T09:21:10;14.82;;;4.70;;
48317;SDS011;34127;47.412;9.730;2022-08-30T09:23:36;8.55;;;4.30;;
48317;SDS011;34127;47.412;9.730;2022-08-30T09:26:11;11.75;;;4.65;;
48317;SDS011;34127;47.412;9.730;2022-08-30T09:28:47;6.88;;;4.35;;
48317;SDS011;34127;47.412;9.730;2022-08-30T09:31:56;6.18;;;4.50;;
48317;SDS011;34127;47.412;9.730;2022-08-30T09:34:04;5.53;;;4.55;;
48317;SDS011;34127;47.412;9.730;2022-08-30T09:36:37;6.03;;;4.50;;
48317;SDS011;34127;47.412;9.730;2022-08-30T09:39:05;7.13;;;4.68;;
48317;SDS011;34127;47.412;9.730;2022-08-30T09:41:39;6.57;;;4.80;;
48317;SDS011;34127;47.412;9.730;2022-08-30T09:44:08;7.13;;;4.95;;
48317;SDS011;34127;47.412;9.730;2022-08-30T09:46:49;6.85;;;4.88;;
48317;SDS011;34127;47.412;9.730;2022-08-30T09:49:34;5.95;;;4.25;;
48317;SDS011;34127;47.412;9.730;2022-08-30T09:54:31;6.30;;;4.70;;
48317;SDS011;34127;47.412;9.730;2022-08-30T10:02:32;9.70;;;5.47;;
48317;SDS011;34127;47.412;9.730;2022-08-30T10:07:48;6.72;;;4.43;;
48317;SDS011;34127;47.412;9.730;2022-08-30T10:10:20;6.65;;;4.55;;
48317;SDS011;34127;47.412;9.730;2022-08-30T10:18:06;8.13;;;4.63;;
48317;SDS011;34127;47.412;9.730;2022-08-30T10:23:12;6.60;;;4.63;;
48317;SDS011;34127;47.412;9.730;2022-08-30T10:31:09;6.70;;;5.40;;
48317;SDS011;34127;47.412;9.730;2022-08-30T10:33:41;5.70;;;4.65;;
48317;SDS011;34127;47.412;9.730;2022-08-30T10:36:11;8.30;;;5.28;;
48317;SDS011;34127;47.412;9.730;2022-08-30T10:38:39;6.68;;;5.18;;
48317;SDS011;34127;47.412;9.730;2022-08-30T10:41:24;8.98;;;5.32;;
48317;SDS011;34127;47.412;9.730;2022-08-30T10:49:18;8.55;;;5.20;;
48317;SDS011;34127;47.412;9.730;2022-08-30T10:51:54;6.97;;;5.20;;
48317;SDS011;34127;47.412;9.730;2022-08-30T10:54:29;7.30;;;5.55;;
48317;SDS011;34127;47.412;9.730;2022-08-30T10:56:58;8.47;;;5.10;;
48317;SDS011;34127;47.412;9.730;2022-08-30T10:59:24;7.75;;;5.35;;
48317;SDS011;34127;47.412;9.730;2022-08-30T11:02:12;7.25;;;5.32;;
48317;SDS011;34127;47.412;9.730;2022-08-30T11:14:59;8.88;;;6.22;;
48317;SDS011;34127;47.412;9.730;2022-08-30T11:20:21;7.55;;;5.90;;
48317;SDS011;34127;47.412;9.730;2022-08-30T11:31:09;9.82;;;5.95;;
48317;SDS011;34127;47.412;9.730;2022-08-30T11:33:40;8.63;;;6.03;;
48317;SDS011;34127;47.412;9.730;2022-08-30T11:36:07;7.47;;;6.18;;
48317;SDS011;34127;47.412;9.730;2022-08-30T11:41:07;9.63;;;6.32;;
48317;SDS011;34127;47.412;9.730;2022-08-30T11:46:16;7.97;;;6.30;;
48317;SDS011;34127;47.412;9.730;2022-08-30T11:48:50;10.40;;;7.18;;
48317;SDS011;34127;47.412;9.730;2022-08-30T11:51:38;8.40;;;6.25;;
48317;SDS011;34127;47.412;9.730;2022-08-30T11:54:22;7.90;;;6.30;;
48317;SDS011;34127;47.412;9.730;2022-08-30T11:56:53;7.90;;;6.20;;
48317;SDS011;34127;47.412;9.730;2022-08-30T12:01:59;7.30;;;6.35;;
48317;SDS011;34127;47.412;9.730;2022-08-30T12:04:27;10.57;;;6.93;;
48317;SDS011;34127;47.412;9.730;2022-08-30T12:07:01;10.18;;;6.32;;
48317;SDS011;34127;47.412;9.730;2022-08-30T12:11:58;8.73;;;6.70;;
48317;SDS011;34127;47.412;9.730;2022-08-30T12:17:10;6.90;;;6.20;;
48317;SDS011;34127;47.412;9.730;2022-08-30T12:19:56;7.28;;;6.22;;
48317;SDS011;34127;47.412;9.730;2022-08-30T12:22:23;6.90;;;6.00;;
48317;SDS011;34127;47.412;9.730;2022-08-30T12:24:51;10.60;;;6.63;;
48317;SDS011;34127;47.412;9.730;2022-08-30T12:27:22;8.52;;;6.50;;
48317;SDS011;34127;47.412;9.730;2022-08-30T12:29:49;11.63;;;6.38;;
48317;SDS011;34127;47.412;9.730;2022-08-30T12:32:16;9.38;;;6.30;;
48317;SDS011;34127;47.412;9.730;2022-08-30T12:39:58;6.82;;;5.90;;
48317;SDS011;34127;47.412;9.730;2022-08-30T12:42:27;9.15;;;6.47;;
48317;SDS011;34127;47.412;9.730;2022-08-30T12:44:54;8.45;;;5.90;;
48317;SDS011;34127;47.412;9.730;2022-08-30T12:47:43;9.60;;;6.50;;
48317;SDS011;34127;47.412;9.730;2022-08-30T12:50:08;8.90;;;6.55;;
48317;SDS011;34127;47.412;9.730;2022-08-30T12:52:38;8.85;;;6.32;;
48317;SDS011;34127;47.412;9.730;2022-08-30T12:55:17;8.77;;;6.47;;
48317;SDS011;34127;47.412;9.730;2022-08-30T13:00:23;9.45;;;6.65;;
48317;SDS011;34127;47.412;9.730;2022-08-30T13:02:51;9.07;;;6.50;;
48317;SDS011;34127;47.412;9.730;2022-08-30T13:05:29;8.52;;;6.40;;
48317;SDS011;34127;47.412;9.730;2022-08-30T13:08:15;8.85;;;7.20;;
48317;SDS011;34127;47.412;9.730;2022-08-30T13:10:52;9.27;;;6.25;;
48317;SDS011;34127;47.412;9.730;2022-08-30T13:18:55;7.60;;;5.80;;
48317;SDS011;34127;47.412;9.730;2022-08-30T13:21:49;8.52;;;6.53;;
48317;SDS011;34127;47.412;9.730;2022-08-30T13:24:15;7.20;;;5.73;;
48317;SDS011;34127;47.412;9.730;2022-08-30T13:26:41;8.25;;;6.28;;
48317;SDS011;34127;47.412;9.730;2022-08-30T13:29:13;7.05;;;6.10;;
48317;SDS011;34127;47.412;9.730;2022-08-30T13:31:40;6.85;;;5.97;;
48317;SDS011;34127;47.412;9.730;2022-08-30T13:34:06;8.55;;;6.18;;
48317;SDS011;34127;47.412;9.730;2022-08-30T13:36:36;10.15;;;6.35;;
48317;SDS011;34127;47.412;9.730;2022-08-30T13:39:04;7.18;;;5.88;;
48317;SDS011;34127;47.412;9.730;2022-08-30T13:41:31;8.55;;;6.30;;
48317;SDS011;34127;47.412;9.730;2022-08-30T13:43:57;10.50;;;5.80;;
48317;SDS011;34127;47.412;9.730;2022-08-30T13:46:23;10.80;;;6.13;;
48317;SDS011;34127;47.412;9.730;2022-08-30T13:48:51;10.57;;;6.20;;
48317;SDS011;34127;47.412;9.730;2022-08-30T13:51:22;8.25;;;6.15;;
48317;SDS011;34127;47.412;9.730;2022-08-30T13:53:48;8.13;;;6.32;;
48317;SDS011;34127;47.412;9.730;2022-08-30T13:56:14;7.60;;;6.00;;
48317;SDS011;34127;47.412;9.730;2022-08-30T13:58:41;6.93;;;5.88;;
48317;SDS011;34127;47.412;9.730;2022-08-30T14:01:07;8.77;;;6.38;;
48317;SDS011;34127;47.412;9.730;2022-08-30T14:03:33;10.40;;;6.40;;
48317;SDS011;34127;47.412;9.730;2022-08-30T14:05:59;6.80;;;6.07;;
48317;SDS011;34127;47.412;9.730;2022-08-30T14:08:28;7.93;;;6.00;;
48317;SDS011;34127;47.412;9.730;2022-08-30T14:10:56;7.07;;;5.50;;
48317;SDS011;34127;47.412;9.730;2022-08-30T14:13:22;7.55;;;5.90;;
48317;SDS011;34127;47.412;9.730;2022-08-30T14:15:49;8.77;;;5.65;;
48317;SDS011;34127;47.412;9.730;2022-08-30T14:18:16;8.77;;;5.80;;
48317;SDS011;34127;47.412;9.730;2022-08-30T14:20:42;8.57;;;5.60;;
48317;SDS011;34127;47.412;9.730;2022-08-30T14:23:08;8.60;;;5.90;;
48317;SDS011;34127;47.412;9.730;2022-08-30T14:25:34;9.18;;;5.80;;
48317;SDS011;34127;47.412;9.730;2022-08-30T14:28:01;6.97;;;5.65;;
48317;SDS011;34127;47.412;9.730;2022-08-30T14:30:27;9.20;;;5.88;;
48317;SDS011;34127;47.412;9.730;2022-08-30T14:32:53;6.50;;;5.55;;
48317;SDS011;34127;47.412;9.730;2022-08-30T14:35:19;7.32;;;5.45;;
48317;SDS011;34127;47.412;9.730;2022-08-30T14:37:46;7.55;;;5.93;;
48317;SDS011;34127;47.412;9.730;2022-08-30T14:40:12;7.53;;;6.05;;
48317;SDS011;34127;47.412;9.730;2022-08-30T14:42:39;7.32;;;5.97;;
48317;SDS011;34127;47.412;9.730;2022-08-30T14:45:05;6.93;;;5.47;;
48317;SDS011;34127;47.412;9.730;2022-08-30T14:47:31;7.70;;;5.93;;
48317;SDS011;34127;47.412;9.730;2022-08-30T14:49:57;7.97;;;5.65;;
48317;SDS011;34127;47.412;9.730;2022-08-30T14:52:26;10.05;;;5.97;;
48317;SDS011;34127;47.412;9.730;2022-08-30T14:54:52;8.60;;;5.75;;
48317;SDS011;34127;47.412;9.730;2022-08-30T14:57:19;7.90;;;6.03;;
48317;SDS011;34127;47.412;9.730;2022-08-30T14:59:45;8.35;;;5.85;;
48317;SDS011;34127;47.412;9.730;2022-08-30T15:02:11;8.57;;;5.72;;
48317;SDS011;34127;47.412;9.730;2022-08-30T15:04:37;7.68;;;5.55;;
48317;SDS011;34127;47.412;9.730;2022-08-30T15:07:03;15.13;;;6.70;;
48317;SDS011;34127;47.412;9.730;2022-08-30T15:09:29;8.93;;;5.80;;
48317;SDS011;34127;47.412;9.730;2022-08-30T15:11:57;9.90;;;5.97;;
48317;SDS011;34127;47.412;9.730;2022-08-30T15:14:27;7.45;;;5.25;;
48317;SDS011;34127;47.412;9.730;2022-08-30T15:16:54;7.75;;;5.35;;
48317;SDS011;34127;47.412;9.730;2022-08-30T15:19:22;7.13;;;5.18;;
48317;SDS011;34127;47.412;9.730;2022-08-30T15:21:48;8.88;;;5.47;;
48317;SDS011;34127;47.412;9.730;2022-08-30T15:24:16;13.10;;;6.00;;
48317;SDS011;34127;47.412;9.730;2022-08-30T15:26:42;9.77;;;5.53;;
48317;SDS011;34127;47.412;9.730;2022-08-30T15:29:09;7.97;;;5.80;;
48317;SDS011;34127;47.412;9.730;2022-08-30T15:31:36;9.13;;;5.55;;
48317;SDS011;34127;47.412;9.730;2022-08-30T15:34:04;7.20;;;5.65;;
48317;SDS011;34127;47.412;9.730;2022-08-30T15:36:30;8.15;;;5.78;;
48317;SDS011;34127;47.412;9.730;2022-08-30T15:38:57;8.13;;;5.22;;
48317;SDS011;34127;47.412;9.730;2022-08-30T15:41:25;7.15;;;5.32;;
48317;SDS011;34127;47.412;9.730;2022-08-30T15:43:51;7.00;;;5.18;;
48317;SDS011;34127;47.412;9.730;2022-08-30T15:48:44;8.10;;;5.25;;
48317;SDS011;34127;47.412;9.730;2022-08-30T15:51:10;7.25;;;5.28;;
48317;SDS011;34127;47.412;9.730;2022-08-30T15:53:37;6.13;;;5.13;;
48317;SDS011;34127;47.412;9.730;2022-08-30T15:56:03;8.18;;;5.30;;
48317;SDS011;34127;47.412;9.730;2022-08-30T15:58:29;6.50;;;5.53;;
48317;SDS011;34127;47.412;9.730;2022-08-30T16:00:55;6.68;;;5.18;;
48317;SDS011;34127;47.412;9.730;2022-08-30T16:03:21;7.28;;;5.55;;
48317;SDS011;34127;47.412;9.730;2022-08-30T16:05:47;6.35;;;5.57;;
48317;SDS011;34127;47.412;9.730;2022-08-30T16:08:13;8.15;;;5.50;;
48317;SDS011;34127;47.412;9.730;2022-08-30T16:10:39;6.90;;;5.40;;
48317;SDS011;34127;47.412;9.730;2022-08-30T16:13:06;7.78;;;5.70;;
48317;SDS011;34127;47.412;9.730;2022-08-30T16:15:32;6.10;;;5.28;;